sensor_id;sensor_type;location;lat;lon;timestamp;P1;durP1;ratioP1;P2;durP2;ratioP2
20639;SDS011;10479;53.524;9.846;2023-09-19T00:01:28;6.40;;;1.50;;
20639;SDS011;10479;53.524;9.846;2023-09-19T00:03:55;3.72;;;1.35;;
20639;SDS011;10479;53.524;9.846;2023-09-19T00:06:22;4.35;;;1.60;;
20639;SDS011;10479;53.524;9.846;2023-09-19T00:08:51;7.30;;;1.75;;
20639;SDS011;10479;53.524;9.846;2023-09-19T00:11:16;8.23;;;1.50;;
20639;SDS011;10479;53.524;9.846;2023-09-19T00:13:42;3.33;;;1.30;;
20639;SDS011;10479;53.524;9.846;2023-09-19T00:16:08;8.10;;;1.90;;
20639;SDS011;10479;53.524;9.846;2023-09-19T00:18:36;8.55;;;1.75;;
20639;SDS011;10479;53.524;9.846;2023-09-19T00:21:02;4.35;;;1.45;;
20639;SDS011;10479;53.524;9.846;2023-09-19T00:23:30;6.20;;;1.58;;
20639;SDS011;10479;53.524;9.846;2023-09-19T00:26:00;6.80;;;2.05;;
20639;SDS011;10479;53.524;9.846;2023-09-19T00:28:26;6.72;;;1.83;;
20639;SDS011;10479;53.524;9.846;2023-09-19T00:30:52;6.15;;;1.70;;
20639;SDS011;10479;53.524;9.846;2023-09-19T00:33:19;5.00;;;1.90;;
20639;SDS011;10479;53.524;9.846;2023-09-19T00:35:52;5.85;;;1.73;;
20639;SDS011;10479;53.524;9.846;2023-09-19T00:40:49;5.25;;;2.17;;
20639;SDS011;10479;53.524;9.846;2023-09-19T00:43:18;6.32;;;2.00;;
20639;SDS011;10479;53.524;9.846;2023-09-19T00:45:44;7.43;;;2.30;;
20639;SDS011;10479;53.524;9.846;2023-09-19T00:48:11;7.47;;;1.90;;
20639;SDS011;10479;53.524;9.846;2023-09-19T00:50:37;5.93;;;2.28;;
20639;SDS011;10479;53.524;9.846;2023-09-19T00:53:04;8.90;;;2.22;;
20639;SDS011;10479;53.524;9.846;2023-09-19T00:55:33;7.88;;;2.40;;
20639;SDS011;10479;53.524;9.846;2023-09-19T00:57:59;10.40;;;2.60;;
20639;SDS011;10479;53.524;9.846;2023-09-19T01:00:25;7.78;;;2.40;;
20639;SDS011;10479;53.524;9.846;2023-09-19T01:02:51;7.25;;;2.70;;
20639;SDS011;10479;53.524;9.846;2023-09-19T01:05:16;6.93;;;2.70;;
20639;SDS011;10479;53.524;9.846;2023-09-19T01:07:42;7.57;;;2.60;;
20639;SDS011;10479;53.524;9.846;2023-09-19T01:10:10;8.15;;;2.80;;
20639;SDS011;10479;53.524;9.846;2023-09-19T01:24:01;6.43;;;2.70;;
20639;SDS011;10479;53.524;9.846;2023-09-19T01:29:51;4.43;;;1.95;;
20639;SDS011;10479;53.524;9.846;2023-09-19T01:32:19;7.07;;;2.22;;
20639;SDS011;10479;53.524;9.846;2023-09-19T01:34:50;5.63;;;2.22;;
20639;SDS011;10479;53.524;9.846;2023-09-19T01:37:18;6.25;;;2.40;;
20639;SDS011;10479;53.524;9.846;2023-09-19T01:39:49;6.85;;;2.20;;
20639;SDS011;10479;53.524;9.846;2023-09-19T01:45:04;5.38;;;1.50;;
20639;SDS011;10479;53.524;9.846;2023-09-19T01:47:35;5.55;;;1.88;;
20639;SDS011;10479;53.524;9.846;2023-09-19T01:50:11;6.85;;;1.83;;
20639;SDS011;10479;53.524;9.846;2023-09-19T01:52:48;5.57;;;1.40;;
20639;SDS011;10479;53.524;9.846;2023-09-19T01:55:23;7.53;;;2.08;;
20639;SDS011;10479;53.524;9.846;2023-09-19T01:58:04;9.30;;;2.00;;
20639;SDS011;10479;53.524;9.846;2023-09-19T02:00:35;9.57;;;2.63;;
20639;SDS011;10479;53.524;9.846;2023-09-19T02:03:03;8.18;;;2.75;;
20639;SDS011;10479;53.524;9.846;2023-09-19T02:05:28;9.05;;;2.90;;
20639;SDS011;10479;53.524;9.846;2023-09-19T02:07:54;7.53;;;2.97;;
20639;SDS011;10479;53.524;9.846;2023-09-19T02:10:21;11.40;;;3.28;;
20639;SDS011;10479;53.524;9.846;2023-09-19T02:12:46;6.80;;;3.42;;
20639;SDS011;10479;53.524;9.846;2023-09-19T02:15:12;8.30;;;3.42;;
20639;SDS011;10479;53.524;9.846;2023-09-19T02:17:37;13.05;;;3.83;;
20639;SDS011;10479;53.524;9.846;2023-09-19T02:20:03;8.13;;;3.80;;
20639;SDS011;10479;53.524;9.846;2023-09-19T02:22:35;10.18;;;4.18;;
20639;SDS011;10479;53.524;9.846;2023-09-19T02:25:01;7.18;;;3.45;;
20639;SDS011;10479;53.524;9.846;2023-09-19T02:27:30;10.65;;;3.80;;
20639;SDS011;10479;53.524;9.846;2023-09-19T02:29:56;11.32;;;3.92;;
20639;SDS011;10479;53.524;9.846;2023-09-19T02:32:21;8.32;;;3.67;;
20639;SDS011;10479;53.524;9.846;2023-09-19T02:34:48;8.15;;;3.55;;
20639;SDS011;10479;53.524;9.846;2023-09-19T02:37:13;9.05;;;3.42;;
20639;SDS011;10479;53.524;9.846;2023-09-19T02:39:41;9.95;;;3.28;;
20639;SDS011;10479;53.524;9.846;2023-09-19T02:42:07;12.45;;;3.17;;
20639;SDS011;10479;53.524;9.846;2023-09-19T02:44:32;9.55;;;3.08;;
20639;SDS011;10479;53.524;9.846;2023-09-19T02:46:59;13.70;;;3.67;;
20639;SDS011;10479;53.524;9.846;2023-09-19T02:49:24;10.38;;;2.97;;
20639;SDS011;10479;53.524;9.846;2023-09-19T02:51:50;11.73;;;3.40;;
20639;SDS011;10479;53.524;9.846;2023-09-19T02:54:15;11.85;;;2.80;;
20639;SDS011;10479;53.524;9.846;2023-09-19T02:56:42;8.57;;;2.88;;
20639;SDS011;10479;53.524;9.846;2023-09-19T02:59:08;6.15;;;2.42;;
20639;SDS011;10479;53.524;9.846;2023-09-19T03:01:35;6.65;;;2.75;;
20639;SDS011;10479;53.524;9.846;2023-09-19T03:04:02;10.98;;;2.40;;
20639;SDS011;10479;53.524;9.846;2023-09-19T03:06:33;10.38;;;2.55;;
20639;SDS011;10479;53.524;9.846;2023-09-19T03:08:59;6.43;;;2.28;;
20639;SDS011;10479;53.524;9.846;2023-09-19T03:11:25;7.97;;;2.55;;
20639;SDS011;10479;53.524;9.846;2023-09-19T03:13:53;8.13;;;2.38;;
20639;SDS011;10479;53.524;9.846;2023-09-19T03:16:19;8.27;;;2.20;;
20639;SDS011;10479;53.524;9.846;2023-09-19T03:18:47;8.27;;;2.10;;
20639;SDS011;10479;53.524;9.846;2023-09-19T03:21:14;7.95;;;2.30;;
20639;SDS011;10479;53.524;9.846;2023-09-19T03:23:40;7.43;;;2.10;;
20639;SDS011;10479;53.524;9.846;2023-09-19T03:26:05;8.25;;;2.80;;
20639;SDS011;10479;53.524;9.846;2023-09-19T03:28:33;7.43;;;2.33;;
20639;SDS011;10479;53.524;9.846;2023-09-19T03:31:02;6.43;;;2.17;;
20639;SDS011;10479;53.524;9.846;2023-09-19T03:33:29;11.18;;;2.88;;
20639;SDS011;10479;53.524;9.846;2023-09-19T03:35:57;7.55;;;1.98;;
20639;SDS011;10479;53.524;9.846;2023-09-19T03:38:24;6.25;;;2.22;;
20639;SDS011;10479;53.524;9.846;2023-09-19T03:40:50;7.28;;;2.25;;
20639;SDS011;10479;53.524;9.846;2023-09-19T03:43:15;7.95;;;2.28;;
20639;SDS011;10479;53.524;9.846;2023-09-19T03:45:41;9.38;;;2.10;;
20639;SDS011;10479;53.524;9.846;2023-09-19T03:48:10;5.68;;;1.65;;
20639;SDS011;10479;53.524;9.846;2023-09-19T03:50:36;9.23;;;2.03;;
20639;SDS011;10479;53.524;9.846;2023-09-19T03:53:01;7.00;;;1.95;;
20639;SDS011;10479;53.524;9.846;2023-09-19T03:55:27;6.53;;;1.83;;
20639;SDS011;10479;53.524;9.846;2023-09-19T03:57:53;6.97;;;1.40;;
20639;SDS011;10479;53.524;9.846;2023-09-19T04:00:18;9.02;;;1.80;;
20639;SDS011;10479;53.524;9.846;2023-09-19T04:02:47;9.13;;;1.63;;
20639;SDS011;10479;53.524;9.846;2023-09-19T04:05:13;9.10;;;1.52;;
20639;SDS011;10479;53.524;9.846;2023-09-19T04:07:38;6.03;;;1.40;;
20639;SDS011;10479;53.524;9.846;2023-09-19T04:10:04;7.38;;;1.40;;
20639;SDS011;10479;53.524;9.846;2023-09-19T04:12:30;6.28;;;1.50;;
20639;SDS011;10479;53.524;9.846;2023-09-19T04:14:55;8.48;;;1.42;;
20639;SDS011;10479;53.524;9.846;2023-09-19T04:17:21;6.93;;;1.52;;
20639;SDS011;10479;53.524;9.846;2023-09-19T04:19:46;8.90;;;1.40;;
20639;SDS011;10479;53.524;9.846;2023-09-19T04:22:12;9.25;;;1.40;;
20639;SDS011;10479;53.524;9.846;2023-09-19T04:24:38;7.07;;;1.45;;
20639;SDS011;10479;53.524;9.846;2023-09-19T04:27:04;4.43;;;1.60;;
20639;SDS011;10479;53.524;9.846;2023-09-19T04:29:30;9.32;;;1.45;;
20639;SDS011;10479;53.524;9.846;2023-09-19T04:31:56;9.98;;;1.92;;
20639;SDS011;10479;53.524;9.846;2023-09-19T04:34:24;11.02;;;1.63;;
20639;SDS011;10479;53.524;9.846;2023-09-19T04:36:50;7.88;;;1.38;;
20639;SDS011;10479;53.524;9.846;2023-09-19T04:39:16;6.47;;;1.58;;
20639;SDS011;10479;53.524;9.846;2023-09-19T04:41:42;6.60;;;1.30;;
20639;SDS011;10479;53.524;9.846;2023-09-19T04:44:11;12.05;;;1.95;;
20639;SDS011;10479;53.524;9.846;2023-09-19T04:46:37;12.30;;;1.73;;
20639;SDS011;10479;53.524;9.846;2023-09-19T04:49:03;10.40;;;1.73;;
20639;SDS011;10479;53.524;9.846;2023-09-19T04:51:28;8.25;;;1.70;;
20639;SDS011;10479;53.524;9.846;2023-09-19T04:53:59;7.43;;;1.42;;
20639;SDS011;10479;53.524;9.846;2023-09-19T04:56:24;10.13;;;1.50;;
20639;SDS011;10479;53.524;9.846;2023-09-19T04:58:49;5.72;;;1.83;;
20639;SDS011;10479;53.524;9.846;2023-09-19T05:01:15;10.07;;;1.50;;
20639;SDS011;10479;53.524;9.846;2023-09-19T05:03:41;7.45;;;1.50;;
20639;SDS011;10479;53.524;9.846;2023-09-19T05:06:07;6.03;;;1.65;;
20639;SDS011;10479;53.524;9.846;2023-09-19T05:08:33;6.53;;;1.40;;
20639;SDS011;10479;53.524;9.846;2023-09-19T05:10:58;7.88;;;1.77;;
20639;SDS011;10479;53.524;9.846;2023-09-19T05:13:27;9.40;;;1.65;;
20639;SDS011;10479;53.524;9.846;2023-09-19T05:15:52;10.32;;;1.50;;
20639;SDS011;10479;53.524;9.846;2023-09-19T05:18:18;8.32;;;1.60;;
20639;SDS011;10479;53.524;9.846;2023-09-19T05:20:43;6.75;;;1.55;;
20639;SDS011;10479;53.524;9.846;2023-09-19T05:23:09;11.18;;;1.77;;
20639;SDS011;10479;53.524;9.846;2023-09-19T05:25:36;9.80;;;1.42;;
20639;SDS011;10479;53.524;9.846;2023-09-19T05:28:04;11.10;;;1.90;;
20639;SDS011;10479;53.524;9.846;2023-09-19T05:30:33;7.97;;;1.75;;
20639;SDS011;10479;53.524;9.846;2023-09-19T05:33:01;8.00;;;1.80;;
20639;SDS011;10479;53.524;9.846;2023-09-19T05:35:30;11.60;;;1.88;;
20639;SDS011;10479;53.524;9.846;2023-09-19T05:37:56;8.60;;;1.60;;
20639;SDS011;10479;53.524;9.846;2023-09-19T05:40:23;9.18;;;1.67;;
20639;SDS011;10479;53.524;9.846;2023-09-19T05:42:49;6.72;;;1.80;;
20639;SDS011;10479;53.524;9.846;2023-09-19T05:45:15;7.85;;;1.63;;
20639;SDS011;10479;53.524;9.846;2023-09-19T05:47:47;8.32;;;1.70;;
20639;SDS011;10479;53.524;9.846;2023-09-19T05:50:16;10.68;;;2.25;;
20639;SDS011;10479;53.524;9.846;2023-09-19T05:52:42;10.93;;;1.67;;
20639;SDS011;10479;53.524;9.846;2023-09-19T05:55:11;11.02;;;2.10;;
20639;SDS011;10479;53.524;9.846;2023-09-19T05:57:37;7.15;;;1.48;;
20639;SDS011;10479;53.524;9.846;2023-09-19T06:00:07;9.85;;;2.30;;
20639;SDS011;10479;53.524;9.846;2023-09-19T06:02:37;8.35;;;1.73;;
20639;SDS011;10479;53.524;9.846;2023-09-19T06:05:04;10.13;;;2.30;;
20639;SDS011;10479;53.524;9.846;2023-09-19T06:07:31;7.13;;;1.50;;
20639;SDS011;10479;53.524;9.846;2023-09-19T06:10:02;7.53;;;1.50;;
20639;SDS011;10479;53.524;9.846;2023-09-19T06:12:32;6.30;;;1.85;;
20639;SDS011;10479;53.524;9.846;2023-09-19T06:15:03;14.57;;;2.17;;
20639;SDS011;10479;53.524;9.846;2023-09-19T06:17:30;13.82;;;1.95;;
20639;SDS011;10479;53.524;9.846;2023-09-19T06:19:56;8.20;;;1.70;;
20639;SDS011;10479;53.524;9.846;2023-09-19T06:22:21;9.60;;;2.25;;
20639;SDS011;10479;53.524;9.846;2023-09-19T06:24:47;8.20;;;1.45;;
20639;SDS011;10479;53.524;9.846;2023-09-19T06:27:13;10.00;;;1.77;;
20639;SDS011;10479;53.524;9.846;2023-09-19T06:29:38;9.20;;;1.85;;
20639;SDS011;10479;53.524;9.846;2023-09-19T06:32:07;7.03;;;1.73;;
20639;SDS011;10479;53.524;9.846;2023-09-19T06:34:34;12.35;;;2.05;;
20639;SDS011;10479;53.524;9.846;2023-09-19T06:36:59;10.32;;;1.77;;
20639;SDS011;10479;53.524;9.846;2023-09-19T06:39:25;10.98;;;2.05;;
20639;SDS011;10479;53.524;9.846;2023-09-19T06:41:51;8.20;;;1.98;;
20639;SDS011;10479;53.524;9.846;2023-09-19T06:44:19;9.10;;;2.25;;
20639;SDS011;10479;53.524;9.846;2023-09-19T06:46:47;9.40;;;1.85;;
20639;SDS011;10479;53.524;9.846;2023-09-19T06:49:15;13.93;;;1.88;;
20639;SDS011;10479;53.524;9.846;2023-09-19T06:51:40;10.90;;;1.77;;
20639;SDS011;10479;53.524;9.846;2023-09-19T06:54:07;10.85;;;2.40;;
20639;SDS011;10479;53.524;9.846;2023-09-19T06:56:32;12.77;;;2.00;;
20639;SDS011;10479;53.524;9.846;2023-09-19T06:58:58;8.20;;;1.63;;
20639;SDS011;10479;53.524;9.846;2023-09-19T07:01:23;12.00;;;2.00;;
20639;SDS011;10479;53.524;9.846;2023-09-19T07:03:50;7.70;;;1.80;;
20639;SDS011;10479;53.524;9.846;2023-09-19T07:06:16;10.65;;;2.33;;
20639;SDS011;10479;53.524;9.846;2023-09-19T07:08:41;9.52;;;1.60;;
20639;SDS011;10479;53.524;9.846;2023-09-19T07:11:07;12.75;;;2.28;;
20639;SDS011;10479;53.524;9.846;2023-09-19T07:13:33;10.10;;;1.95;;
20639;SDS011;10479;53.524;9.846;2023-09-19T07:15:58;12.93;;;2.00;;
20639;SDS011;10479;53.524;9.846;2023-09-19T07:18:24;9.60;;;1.85;;
20639;SDS011;10479;53.524;9.846;2023-09-19T07:20:50;13.75;;;1.92;;
20639;SDS011;10479;53.524;9.846;2023-09-19T07:23:20;12.57;;;2.35;;
20639;SDS011;10479;53.524;9.846;2023-09-19T07:25:48;9.70;;;2.78;;
20639;SDS011;10479;53.524;9.846;2023-09-19T07:28:13;18.90;;;2.53;;
20639;SDS011;10479;53.524;9.846;2023-09-19T07:30:39;11.93;;;2.22;;
20639;SDS011;10479;53.524;9.846;2023-09-19T07:33:06;11.00;;;2.17;;
20639;SDS011;10479;53.524;9.846;2023-09-19T07:35:32;16.17;;;2.45;;
20639;SDS011;10479;53.524;9.846;2023-09-19T07:37:58;17.77;;;2.63;;
20639;SDS011;10479;53.524;9.846;2023-09-19T07:40:27;11.30;;;2.42;;
20639;SDS011;10479;53.524;9.846;2023-09-19T07:43:17;9.15;;;1.88;;
20639;SDS011;10479;53.524;9.846;2023-09-19T07:45:43;7.55;;;1.85;;
20639;SDS011;10479;53.524;9.846;2023-09-19T07:48:09;9.88;;;1.90;;
20639;SDS011;10479;53.524;9.846;2023-09-19T07:50:39;9.38;;;1.65;;
20639;SDS011;10479;53.524;9.846;2023-09-19T07:53:05;13.57;;;2.35;;
20639;SDS011;10479;53.524;9.846;2023-09-19T07:55:31;12.38;;;2.78;;
20639;SDS011;10479;53.524;9.846;2023-09-19T07:57:59;9.88;;;2.22;;
20639;SDS011;10479;53.524;9.846;2023-09-19T08:00:24;9.85;;;2.17;;
20639;SDS011;10479;53.524;9.846;2023-09-19T08:02:50;7.65;;;1.90;;
20639;SDS011;10479;53.524;9.846;2023-09-19T08:05:17;12.18;;;2.20;;
20639;SDS011;10479;53.524;9.846;2023-09-19T08:07:45;15.60;;;2.50;;
20639;SDS011;10479;53.524;9.846;2023-09-19T08:10:14;12.45;;;2.15;;
20639;SDS011;10479;53.524;9.846;2023-09-19T08:12:41;8.32;;;2.22;;
20639;SDS011;10479;53.524;9.846;2023-09-19T08:15:14;8.10;;;1.67;;
20639;SDS011;10479;53.524;9.846;2023-09-19T08:17:47;11.60;;;1.92;;
20639;SDS011;10479;53.524;9.846;2023-09-19T08:20:14;10.88;;;2.35;;
20639;SDS011;10479;53.524;9.846;2023-09-19T08:22:49;8.00;;;2.20;;
20639;SDS011;10479;53.524;9.846;2023-09-19T08:25:17;10.07;;;2.42;;
20639;SDS011;10479;53.524;9.846;2023-09-19T08:27:43;10.55;;;2.03;;
20639;SDS011;10479;53.524;9.846;2023-09-19T08:30:17;16.30;;;3.03;;
20639;SDS011;10479;53.524;9.846;2023-09-19T08:33:01;11.68;;;2.35;;
20639;SDS011;10479;53.524;9.846;2023-09-19T08:35:30;13.45;;;2.78;;
20639;SDS011;10479;53.524;9.846;2023-09-19T08:37:58;15.20;;;2.38;;
20639;SDS011;10479;53.524;9.846;2023-09-19T08:40:29;15.10;;;2.35;;
20639;SDS011;10479;53.524;9.846;2023-09-19T08:42:58;10.80;;;1.90;;
20639;SDS011;10479;53.524;9.846;2023-09-19T08:45:25;10.07;;;2.00;;
20639;SDS011;10479;53.524;9.846;2023-09-19T08:50:27;11.27;;;2.15;;
20639;SDS011;10479;53.524;9.846;2023-09-19T08:52:55;10.15;;;2.00;;
20639;SDS011;10479;53.524;9.846;2023-09-19T08:55:26;9.50;;;2.08;;
20639;SDS011;10479;53.524;9.846;2023-09-19T08:57:55;15.02;;;2.45;;
20639;SDS011;10479;53.524;9.846;2023-09-19T09:00:26;10.10;;;2.40;;
20639;SDS011;10479;53.524;9.846;2023-09-19T09:02:52;10.32;;;2.35;;
20639;SDS011;10479;53.524;9.846;2023-09-19T09:05:19;13.65;;;2.85;;
20639;SDS011;10479;53.524;9.846;2023-09-19T09:07:48;11.50;;;2.28;;
20639;SDS011;10479;53.524;9.846;2023-09-19T09:10:16;12.70;;;2.35;;
20639;SDS011;10479;53.524;9.846;2023-09-19T09:12:43;12.18;;;2.08;;
20639;SDS011;10479;53.524;9.846;2023-09-19T09:15:10;11.07;;;2.40;;
20639;SDS011;10479;53.524;9.846;2023-09-19T09:17:37;12.60;;;2.42;;
20639;SDS011;10479;53.524;9.846;2023-09-19T09:20:03;11.85;;;2.10;;
20639;SDS011;10479;53.524;9.846;2023-09-19T09:22:35;14.53;;;2.27;;
20639;SDS011;10479;53.524;9.846;2023-09-19T09:25:01;10.63;;;2.33;;
20639;SDS011;10479;53.524;9.846;2023-09-19T09:27:29;11.65;;;2.33;;
20639;SDS011;10479;53.524;9.846;2023-09-19T09:29:54;13.65;;;2.33;;
20639;SDS011;10479;53.524;9.846;2023-09-19T09:34:47;10.93;;;1.92;;
20639;SDS011;10479;53.524;9.846;2023-09-19T09:37:15;10.23;;;2.00;;
20639;SDS011;10479;53.524;9.846;2023-09-19T09:39:48;12.88;;;2.38;;
20639;SDS011;10479;53.524;9.846;2023-09-19T09:42:29;17.40;;;2.38;;
20639;SDS011;10479;53.524;9.846;2023-09-19T09:47:46;10.88;;;1.83;;
20639;SDS011;10479;53.524;9.846;2023-09-19T09:50:30;9.80;;;2.00;;
20639;SDS011;10479;53.524;9.846;2023-09-19T09:58:34;7.97;;;1.50;;
20639;SDS011;10479;53.524;9.846;2023-09-19T10:01:19;11.82;;;1.60;;
20639;SDS011;10479;53.524;9.846;2023-09-19T10:03:46;12.70;;;2.00;;
20639;SDS011;10479;53.524;9.846;2023-09-19T10:06:16;7.40;;;1.50;;
20639;SDS011;10479;53.524;9.846;2023-09-19T10:11:35;9.68;;;1.55;;
20639;SDS011;10479;53.524;9.846;2023-09-19T10:14:23;7.25;;;1.70;;
20639;SDS011;10479;53.524;9.846;2023-09-19T10:16:50;10.90;;;1.73;;
20639;SDS011;10479;53.524;9.846;2023-09-19T10:20:19;11.95;;;1.65;;
20639;SDS011;10479;53.524;9.846;2023-09-19T10:24:49;8.77;;;1.52;;
20639;SDS011;10479;53.524;9.846;2023-09-19T10:27:17;7.05;;;2.55;;
20639;SDS011;10479;53.524;9.846;2023-09-19T10:29:44;6.43;;;1.48;;
20639;SDS011;10479;53.524;9.846;2023-09-19T10:32:13;7.22;;;1.67;;
20639;SDS011;10479;53.524;9.846;2023-09-19T10:34:43;9.55;;;1.77;;
20639;SDS011;10479;53.524;9.846;2023-09-19T10:37:13;9.13;;;1.52;;
20639;SDS011;10479;53.524;9.846;2023-09-19T10:39:40;9.68;;;1.38;;
20639;SDS011;10479;53.524;9.846;2023-09-19T10:42:07;10.10;;;1.50;;
20639;SDS011;10479;53.524;9.846;2023-09-19T10:44:34;7.40;;;1.55;;
20639;SDS011;10479;53.524;9.846;2023-09-19T10:47:07;9.60;;;1.85;;
20639;SDS011;10479;53.524;9.846;2023-09-19T10:49:34;9.40;;;1.75;;
20639;SDS011;10479;53.524;9.846;2023-09-19T10:51:59;8.68;;;3.40;;
20639;SDS011;10479;53.524;9.846;2023-09-19T10:54:27;14.93;;;2.28;;
20639;SDS011;10479;53.524;9.846;2023-09-19T10:56:55;10.55;;;1.95;;
20639;SDS011;10479;53.524;9.846;2023-09-19T10:59:24;7.20;;;1.90;;
20639;SDS011;10479;53.524;9.846;2023-09-19T11:01:53;10.85;;;1.77;;
20639;SDS011;10479;53.524;9.846;2023-09-19T11:04:32;8.82;;;1.48;;
20639;SDS011;10479;53.524;9.846;2023-09-19T11:07:02;10.52;;;1.90;;
20639;SDS011;10479;53.524;9.846;2023-09-19T11:09:50;10.88;;;1.77;;
20639;SDS011;10479;53.524;9.846;2023-09-19T11:14:56;9.20;;;1.40;;
20639;SDS011;10479;53.524;9.846;2023-09-19T11:17:33;7.60;;;1.67;;
20639;SDS011;10479;53.524;9.846;2023-09-19T11:30:34;6.88;;;1.67;;
20639;SDS011;10479;53.524;9.846;2023-09-19T11:36:09;9.60;;;1.42;;
20639;SDS011;10479;53.524;9.846;2023-09-19T11:43:45;7.97;;;1.63;;
20639;SDS011;10479;53.524;9.846;2023-09-19T11:46:11;9.75;;;2.20;;
20639;SDS011;10479;53.524;9.846;2023-09-19T11:48:40;10.60;;;1.63;;
20639;SDS011;10479;53.524;9.846;2023-09-19T11:51:10;8.85;;;1.63;;
20639;SDS011;10479;53.524;9.846;2023-09-19T11:53:43;8.10;;;1.65;;
20639;SDS011;10479;53.524;9.846;2023-09-19T11:56:13;12.65;;;2.15;;
20639;SDS011;10479;53.524;9.846;2023-09-19T11:58:40;9.45;;;1.67;;
20639;SDS011;10479;53.524;9.846;2023-09-19T12:01:07;10.23;;;2.10;;
20639;SDS011;10479;53.524;9.846;2023-09-19T12:03:38;10.88;;;2.22;;
20639;SDS011;10479;53.524;9.846;2023-09-19T12:06:10;8.27;;;1.92;;
20639;SDS011;10479;53.524;9.846;2023-09-19T12:08:39;7.68;;;2.25;;
20639;SDS011;10479;53.524;9.846;2023-09-19T12:11:15;10.95;;;2.00;;
20639;SDS011;10479;53.524;9.846;2023-09-19T12:13:41;9.82;;;2.13;;
20639;SDS011;10479;53.524;9.846;2023-09-19T12:16:20;9.30;;;1.63;;
20639;SDS011;10479;53.524;9.846;2023-09-19T12:18:49;12.35;;;2.58;;
20639;SDS011;10479;53.524;9.846;2023-09-19T12:21:28;8.07;;;1.90;;
20639;SDS011;10479;53.524;9.846;2023-09-19T12:24:03;9.27;;;1.77;;
20639;SDS011;10479;53.524;9.846;2023-09-19T12:26:44;13.65;;;2.35;;
20639;SDS011;10479;53.524;9.846;2023-09-19T12:29:18;9.73;;;1.75;;
20639;SDS011;10479;53.524;9.846;2023-09-19T12:31:55;14.35;;;2.20;;
20639;SDS011;10479;53.524;9.846;2023-09-19T12:34:26;8.10;;;1.60;;
20639;SDS011;10479;53.524;9.846;2023-09-19T12:37:08;9.65;;;2.20;;
20639;SDS011;10479;53.524;9.846;2023-09-19T12:39:40;11.88;;;2.20;;
20639;SDS011;10479;53.524;9.846;2023-09-19T12:42:08;10.77;;;2.03;;
20639;SDS011;10479;53.524;9.846;2023-09-19T12:44:36;11.98;;;2.17;;
20639;SDS011;10479;53.524;9.846;2023-09-19T12:47:09;16.60;;;2.67;;
20639;SDS011;10479;53.524;9.846;2023-09-19T12:49:36;12.57;;;1.98;;
20639;SDS011;10479;53.524;9.846;2023-09-19T12:52:02;13.00;;;2.08;;
20639;SDS011;10479;53.524;9.846;2023-09-19T12:54:37;14.27;;;2.38;;
20639;SDS011;10479;53.524;9.846;2023-09-19T12:57:04;11.48;;;1.90;;
20639;SDS011;10479;53.524;9.846;2023-09-19T12:59:30;13.40;;;1.90;;
20639;SDS011;10479;53.524;9.846;2023-09-19T13:02:04;12.55;;;2.40;;
20639;SDS011;10479;53.524;9.846;2023-09-19T13:04:38;7.45;;;1.60;;
20639;SDS011;10479;53.524;9.846;2023-09-19T13:07:06;9.98;;;1.83;;
20639;SDS011;10479;53.524;9.846;2023-09-19T13:09:34;8.60;;;1.90;;
20639;SDS011;10479;53.524;9.846;2023-09-19T13:11:59;8.45;;;1.80;;
20639;SDS011;10479;53.524;9.846;2023-09-19T13:14:27;11.27;;;2.40;;
20639;SDS011;10479;53.524;9.846;2023-09-19T13:17:08;11.38;;;1.95;;
20639;SDS011;10479;53.524;9.846;2023-09-19T13:19:46;11.60;;;2.00;;
20639;SDS011;10479;53.524;9.846;2023-09-19T13:22:42;10.27;;;2.20;;
20639;SDS011;10479;53.524;9.846;2023-09-19T13:25:15;10.55;;;2.08;;
20639;SDS011;10479;53.524;9.846;2023-09-19T13:27:45;6.78;;;1.60;;
20639;SDS011;10479;53.524;9.846;2023-09-19T13:30:19;14.95;;;2.25;;
20639;SDS011;10479;53.524;9.846;2023-09-19T13:32:45;12.57;;;2.25;;
20639;SDS011;10479;53.524;9.846;2023-09-19T13:35:12;8.27;;;2.08;;
20639;SDS011;10479;53.524;9.846;2023-09-19T13:37:38;9.15;;;2.03;;
20639;SDS011;10479;53.524;9.846;2023-09-19T13:40:10;10.52;;;2.15;;
20639;SDS011;10479;53.524;9.846;2023-09-19T13:42:36;10.93;;;2.28;;
20639;SDS011;10479;53.524;9.846;2023-09-19T13:45:02;13.60;;;1.90;;
20639;SDS011;10479;53.524;9.846;2023-09-19T13:47:29;8.18;;;2.00;;
20639;SDS011;10479;53.524;9.846;2023-09-19T13:49:55;12.10;;;2.15;;
20639;SDS011;10479;53.524;9.846;2023-09-19T13:52:21;9.55;;;2.03;;
20639;SDS011;10479;53.524;9.846;2023-09-19T13:54:48;8.32;;;1.70;;
20639;SDS011;10479;53.524;9.846;2023-09-19T13:57:16;9.93;;;1.90;;
20639;SDS011;10479;53.524;9.846;2023-09-19T13:59:42;10.27;;;2.08;;
20639;SDS011;10479;53.524;9.846;2023-09-19T14:02:07;9.15;;;1.90;;
20639;SDS011;10479;53.524;9.846;2023-09-19T14:04:33;13.18;;;1.98;;
20639;SDS011;10479;53.524;9.846;2023-09-19T14:07:00;13.30;;;2.08;;
20639;SDS011;10479;53.524;9.846;2023-09-19T14:09:26;9.18;;;2.20;;
20639;SDS011;10479;53.524;9.846;2023-09-19T14:11:51;11.20;;;2.25;;
20639;SDS011;10479;53.524;9.846;2023-09-19T14:14:18;6.88;;;2.03;;
20639;SDS011;10479;53.524;9.846;2023-09-19T14:17:00;11.75;;;2.08;;
20639;SDS011;10479;53.524;9.846;2023-09-19T14:19:26;11.00;;;2.28;;
20639;SDS011;10479;53.524;9.846;2023-09-19T14:21:52;11.60;;;2.13;;
20639;SDS011;10479;53.524;9.846;2023-09-19T14:24:20;11.27;;;2.35;;
20639;SDS011;10479;53.524;9.846;2023-09-19T14:26:46;10.52;;;1.83;;
20639;SDS011;10479;53.524;9.846;2023-09-19T14:29:11;7.80;;;1.70;;
20639;SDS011;10479;53.524;9.846;2023-09-19T14:31:39;8.77;;;1.85;;
20639;SDS011;10479;53.524;9.846;2023-09-19T14:34:08;12.23;;;2.17;;
20639;SDS011;10479;53.524;9.846;2023-09-19T14:36:37;9.77;;;1.77;;
20639;SDS011;10479;53.524;9.846;2023-09-19T14:39:06;7.13;;;1.88;;
20639;SDS011;10479;53.524;9.846;2023-09-19T14:41:33;9.68;;;1.65;;
20639;SDS011;10479;53.524;9.846;2023-09-19T14:43:58;12.25;;;2.10;;
20639;SDS011;10479;53.524;9.846;2023-09-19T14:46:24;10.90;;;2.00;;
20639;SDS011;10479;53.524;9.846;2023-09-19T14:48:53;9.50;;;2.03;;
20639;SDS011;10479;53.524;9.846;2023-09-19T14:51:18;9.77;;;1.75;;
20639;SDS011;10479;53.524;9.846;2023-09-19T14:53:44;13.48;;;2.05;;
20639;SDS011;10479;53.524;9.846;2023-09-19T14:56:11;12.63;;;1.85;;
20639;SDS011;10479;53.524;9.846;2023-09-19T14:58:38;10.50;;;1.92;;
20639;SDS011;10479;53.524;9.846;2023-09-19T15:01:05;10.85;;;1.75;;
20639;SDS011;10479;53.524;9.846;2023-09-19T15:03:37;7.80;;;1.63;;
20639;SDS011;10479;53.524;9.846;2023-09-19T15:06:07;10.18;;;2.22;;
20639;SDS011;10479;53.524;9.846;2023-09-19T15:08:36;10.30;;;2.30;;
20639;SDS011;10479;53.524;9.846;2023-09-19T15:11:03;12.50;;;2.00;;
20639;SDS011;10479;53.524;9.846;2023-09-19T15:13:32;9.90;;;2.28;;
20639;SDS011;10479;53.524;9.846;2023-09-19T15:16:02;9.10;;;1.75;;
20639;SDS011;10479;53.524;9.846;2023-09-19T15:18:29;10.85;;;1.65;;
20639;SDS011;10479;53.524;9.846;2023-09-19T15:21:02;10.60;;;2.05;;
20639;SDS011;10479;53.524;9.846;2023-09-19T15:23:38;8.18;;;1.95;;
20639;SDS011;10479;53.524;9.846;2023-09-19T15:26:05;8.27;;;2.00;;
20639;SDS011;10479;53.524;9.846;2023-09-19T15:28:31;9.90;;;2.00;;
20639;SDS011;10479;53.524;9.846;2023-09-19T15:31:02;12.43;;;2.45;;
20639;SDS011;10479;53.524;9.846;2023-09-19T15:33:32;10.90;;;2.00;;
20639;SDS011;10479;53.524;9.846;2023-09-19T15:36:02;9.07;;;1.80;;
20639;SDS011;10479;53.524;9.846;2023-09-19T15:41:18;9.30;;;1.90;;
20639;SDS011;10479;53.524;9.846;2023-09-19T15:43:44;15.85;;;1.90;;
20639;SDS011;10479;53.524;9.846;2023-09-19T15:46:09;11.13;;;1.90;;
20639;SDS011;10479;53.524;9.846;2023-09-19T15:48:35;9.95;;;2.17;;
20639;SDS011;10479;53.524;9.846;2023-09-19T15:51:04;9.23;;;1.92;;
20639;SDS011;10479;53.524;9.846;2023-09-19T15:54:06;9.10;;;2.22;;